createdAt,value
2018-12-18T16:04:52.013Z,23.80
2018-12-18T16:05:51.998Z,26.50
2018-12-18T16:07:22.463Z,16.30
2018-12-18T16:08:22.433Z,19.10
2018-12-18T16:09:53.239Z,19.20
2018-12-18T16:10:52.887Z,27.20
2018-12-18T16:12:23.358Z,17.10
2018-12-18T16:13:23.330Z,17.20
2018-12-18T16:14:23.317Z,17.10
2018-12-18T16:15:23.308Z,16.90
2018-12-18T16:16:23.300Z,18.00
2018-12-18T16:17:23.291Z,15.90
2018-12-18T16:18:23.275Z,16.30
2018-12-18T16:19:23.264Z,15.80
2018-12-18T16:20:23.253Z,18.90
2018-12-18T16:21:23.247Z,12.30
2018-12-18T16:22:23.232Z,17.50
2018-12-18T16:23:23.302Z,13.40
2018-12-18T16:24:23.920Z,17.90
2018-12-18T16:25:23.198Z,14.60
2018-12-18T16:26:23.206Z,14.80
2018-12-18T16:27:23.180Z,12.90
2018-12-18T16:28:23.169Z,14.30
2018-12-18T16:29:23.159Z,13.10
2018-12-18T16:30:23.147Z,15.00
2018-12-18T16:31:23.136Z,14.50
2018-12-18T16:32:23.125Z,12.00
2018-12-18T16:33:23.121Z,14.60
2018-12-18T16:34:23.122Z,12.20
2018-12-18T16:35:23.102Z,13.50
2018-12-18T16:36:23.082Z,11.60
2018-12-18T16:37:23.400Z,13.40
2018-12-18T16:38:23.061Z,13.90
2018-12-18T16:39:23.052Z,11.60
2018-12-18T16:40:23.038Z,11.40
2018-12-18T16:41:23.028Z,13.20
2018-12-18T16:42:23.019Z,15.60
2018-12-18T16:43:23.003Z,11.50
2018-12-18T16:44:23.141Z,11.00
2018-12-18T16:45:22.981Z,11.50
2018-12-18T16:46:22.971Z,11.70
2018-12-18T16:47:22.959Z,8.50
2018-12-18T16:48:22.949Z,12.60
2018-12-18T16:49:22.961Z,10.70
2018-12-18T16:50:26.529Z,11.20
2018-12-18T16:51:22.921Z,11.90
2018-12-18T16:52:22.998Z,11.30
2018-12-18T16:53:22.895Z,9.10
2018-12-18T16:54:22.880Z,12.70
2018-12-18T16:55:22.873Z,12.80
2018-12-18T16:56:22.861Z,10.30
2018-12-18T16:57:22.888Z,9.70
2018-12-18T16:58:22.838Z,10.70
2018-12-18T16:59:22.844Z,10.60
2018-12-18T17:00:22.816Z,10.30
2018-12-18T17:01:22.817Z,14.20
2018-12-18T17:02:22.989Z,10.50
2018-12-18T17:03:22.782Z,10.60
2018-12-18T17:04:22.797Z,9.50
2018-12-18T17:05:23.018Z,10.70
2018-12-18T17:06:22.754Z,11.80
2018-12-18T17:07:29.400Z,10.40
2018-12-18T17:08:23.829Z,11.00
2018-12-18T17:09:22.717Z,10.10
2018-12-18T17:10:22.707Z,9.10
2018-12-18T17:11:22.697Z,10.80
2018-12-18T17:12:22.685Z,9.50
2018-12-18T17:13:22.673Z,10.60
2018-12-18T17:14:22.665Z,9.90
2018-12-18T17:15:22.652Z,7.20
2018-12-18T17:16:22.644Z,12.40
2018-12-18T17:17:22.636Z,10.20
2018-12-18T17:18:22.658Z,8.40
2018-12-18T17:19:22.611Z,8.70
2018-12-18T17:20:22.624Z,9.40
2018-12-18T17:21:22.589Z,7.40
2018-12-18T17:22:22.576Z,10.20
2018-12-18T17:23:22.566Z,11.20
2018-12-18T17:24:22.618Z,9.00
2018-12-18T17:25:22.556Z,8.40
2018-12-18T17:26:22.538Z,7.40
2018-12-18T17:27:22.604Z,10.20
2018-12-18T17:28:22.787Z,12.60
2018-12-18T17:29:22.501Z,9.70
2018-12-18T17:30:22.515Z,12.10
2018-12-18T17:31:22.484Z,10.50
2018-12-18T17:32:22.468Z,9.10
2018-12-18T17:33:22.460Z,8.90
2018-12-18T17:34:22.448Z,9.50
2018-12-18T17:35:22.435Z,10.10
2018-12-18T17:36:22.426Z,8.50
2018-12-18T17:37:22.422Z,8.30
2018-12-18T17:38:22.402Z,8.40
2018-12-18T17:39:22.397Z,9.90
2018-12-18T17:40:22.383Z,8.00
2018-12-18T17:41:22.372Z,7.30
2018-12-18T17:42:22.364Z,8.60
2018-12-18T17:43:22.348Z,7.70
2018-12-18T17:44:22.338Z,10.80
2018-12-18T17:45:22.339Z,11.30
2018-12-18T17:46:22.319Z,9.00
2018-12-18T17:47:22.308Z,6.90
2018-12-18T17:48:22.295Z,9.10
2018-12-18T17:49:22.285Z,7.40
2018-12-18T17:50:22.272Z,8.40
2018-12-18T17:51:22.262Z,9.90
2018-12-18T17:52:22.251Z,9.00
2018-12-18T17:53:22.243Z,13.70
2018-12-18T17:54:22.230Z,42.30
2018-12-18T17:55:22.223Z,23.30
2018-12-18T17:56:22.208Z,38.60
2018-12-18T17:57:22.198Z,26.20
2018-12-18T17:58:22.187Z,27.30
2018-12-18T17:59:22.175Z,21.40
2018-12-18T18:00:22.164Z,29.70
2018-12-18T18:01:22.154Z,23.00
2018-12-18T18:02:22.142Z,27.50
2018-12-18T18:03:22.137Z,14.40
2018-12-18T18:04:22.121Z,16.40
2018-12-18T18:05:22.123Z,23.40
2018-12-18T18:06:22.106Z,27.00
2018-12-18T18:07:22.093Z,21.50
2018-12-18T18:08:22.081Z,12.00
2018-12-18T18:09:22.067Z,15.80
2018-12-18T18:10:22.058Z,18.30
2018-12-18T18:11:22.052Z,17.20
2018-12-18T18:12:22.047Z,10.10
2018-12-18T18:13:22.030Z,17.10
2018-12-18T18:14:22.016Z,9.90
2018-12-18T18:15:22.010Z,14.00
2018-12-18T18:16:21.997Z,14.00
2018-12-18T18:17:21.983Z,16.60
2018-12-18T18:18:21.974Z,16.90
2018-12-18T18:19:21.964Z,9.20
2018-12-18T18:20:21.952Z,9.70
2018-12-18T18:21:21.942Z,14.00
2018-12-18T18:22:21.929Z,12.90
2018-12-18T18:23:21.924Z,10.20
2018-12-18T18:24:21.908Z,9.70
2018-12-18T18:25:21.897Z,11.60
2018-12-18T18:26:21.887Z,8.80
2018-12-18T18:27:21.876Z,11.30
2018-12-18T18:28:21.870Z,13.00
2018-12-18T18:29:21.853Z,13.30
2018-12-18T18:30:21.842Z,8.90
2018-12-18T18:31:21.835Z,7.60
2018-12-18T18:32:21.820Z,12.10
2018-12-18T18:33:21.809Z,11.70
2018-12-18T18:34:21.803Z,15.90
2018-12-18T18:35:21.791Z,12.20
2018-12-18T18:36:21.779Z,14.60
2018-12-18T18:37:21.768Z,12.30
2018-12-18T18:38:21.757Z,10.30
2018-12-18T18:39:21.753Z,11.00
2018-12-18T18:40:21.736Z,13.30
2018-12-18T18:47:26.714Z,17.60
2018-12-18T18:48:05.699Z,18.40
2018-12-18T18:49:36.168Z,14.30
2018-12-18T18:50:36.154Z,14.50
2018-12-18T18:52:06.619Z,9.70
2018-12-18T18:53:06.588Z,11.40
2018-12-18T18:54:37.057Z,7.40
2018-12-18T18:55:37.043Z,8.80
2018-12-18T18:57:07.511Z,12.00
2018-12-18T18:58:07.487Z,12.00
2018-12-18T18:59:37.948Z,7.30
2018-12-18T19:00:37.933Z,9.10
2018-12-18T19:02:12.653Z,11.60
2018-12-18T19:03:12.623Z,12.40
2018-12-18T19:04:43.085Z,16.00
2018-12-18T19:05:43.069Z,10.70
2018-12-18T19:07:13.549Z,6.90
2018-12-18T19:08:13.526Z,14.30
2018-12-18T19:09:43.998Z,8.70
2018-12-18T19:10:43.982Z,7.00
2018-12-18T19:12:14.443Z,7.10
2018-12-18T19:13:14.436Z,9.70
2018-12-18T19:14:44.891Z,4.50
2018-12-18T19:15:44.879Z,8.80
2018-12-18T19:17:15.360Z,18.60
2018-12-18T19:18:15.331Z,11.30
2018-12-18T19:19:45.787Z,12.10
2018-12-18T19:20:45.776Z,8.90
2018-12-18T19:22:16.267Z,7.70
2018-12-18T19:23:16.228Z,8.60
2018-12-18T19:24:46.693Z,7.80
2018-12-18T19:25:46.677Z,14.10
2018-12-18T19:27:17.145Z,5.00
2018-12-18T19:28:17.121Z,5.60
2018-12-18T19:29:47.585Z,6.40
2018-12-18T19:30:47.570Z,7.80
2018-12-18T19:32:18.055Z,4.20
2018-12-18T19:33:18.014Z,5.70
2018-12-18T19:34:48.492Z,6.70
2018-12-18T19:35:48.457Z,6.30
2018-12-18T19:37:18.981Z,10.10
2018-12-18T19:38:18.911Z,10.70
2018-12-18T19:39:49.374Z,8.60
2018-12-18T19:40:49.357Z,10.10
2018-12-18T19:42:19.829Z,17.00
2018-12-18T19:43:19.802Z,10.90
2018-12-18T19:44:50.292Z,15.30
2018-12-18T19:45:50.264Z,10.50
2018-12-18T19:46:50.241Z,8.80
2018-12-18T19:47:50.228Z,11.10
2018-12-18T19:48:50.220Z,13.50
2018-12-18T19:49:50.220Z,52.60
2018-12-18T19:50:50.200Z,54.90
2018-12-18T19:51:50.199Z,55.50
2018-12-18T19:52:50.178Z,39.60
2018-12-18T19:53:50.173Z,43.50
2018-12-18T19:54:50.157Z,33.60
2018-12-18T19:55:50.150Z,40.20
2018-12-18T19:56:50.135Z,42.70
2018-12-18T19:57:50.122Z,43.70
2018-12-18T19:58:50.124Z,45.40
2018-12-18T19:59:50.104Z,37.40
2018-12-18T20:00:50.089Z,38.50
2018-12-18T20:01:50.084Z,50.50
2018-12-18T20:02:50.075Z,41.30
2018-12-18T20:03:50.063Z,43.30
2018-12-18T20:04:50.046Z,42.60
2018-12-18T20:05:50.035Z,36.30
2018-12-18T20:06:50.029Z,35.10
2018-12-18T20:07:50.015Z,39.00
2018-12-18T20:08:50.009Z,37.60
2018-12-18T20:09:49.995Z,34.80
2018-12-18T20:10:49.982Z,36.60
2018-12-18T20:11:49.973Z,30.20
2018-12-18T20:12:49.961Z,35.60
2018-12-18T20:13:49.952Z,26.70
2018-12-18T20:14:49.951Z,31.20
2018-12-18T20:15:49.930Z,30.70
2018-12-18T20:16:49.920Z,29.60
2018-12-18T20:17:49.911Z,26.50
2018-12-18T20:18:49.899Z,27.80
2018-12-18T20:19:49.891Z,29.60
2018-12-18T20:20:49.881Z,27.50
2018-12-18T20:21:49.874Z,28.10
2018-12-18T20:22:49.859Z,24.70
2018-12-18T20:23:49.844Z,21.40
2018-12-18T20:24:49.834Z,24.70
2018-12-18T20:25:49.826Z,26.70
2018-12-18T20:26:49.812Z,30.60
2018-12-18T20:27:49.814Z,28.60
2018-12-18T20:28:49.793Z,29.40
2018-12-18T20:29:49.785Z,24.50
2018-12-18T20:30:49.768Z,29.50
2018-12-18T20:31:49.760Z,25.00
2018-12-18T20:32:49.759Z,22.90
2018-12-18T20:33:49.736Z,23.90
2018-12-18T20:34:49.726Z,29.10
2018-12-18T20:35:49.717Z,20.20
2018-12-18T20:36:49.705Z,25.30
2018-12-18T20:37:49.696Z,20.50
2018-12-18T20:38:49.699Z,25.20
2018-12-18T20:39:49.674Z,21.20
2018-12-18T20:40:49.661Z,20.20
2018-12-18T20:41:49.655Z,24.60
2018-12-18T20:42:49.642Z,19.10
2018-12-18T20:43:49.632Z,26.30
2018-12-18T20:44:49.621Z,24.10
2018-12-18T20:45:49.608Z,23.20
2018-12-18T20:46:49.599Z,18.80
2018-12-18T20:47:49.587Z,21.10
2018-12-18T20:48:49.583Z,17.50
2018-12-18T20:49:49.567Z,19.30
2018-12-18T20:50:49.554Z,20.40
2018-12-18T20:51:49.545Z,19.70
2018-12-18T20:52:49.542Z,19.60
2018-12-18T20:53:49.525Z,17.40
2018-12-18T20:54:49.514Z,17.80
2018-12-18T20:55:49.503Z,18.50
2018-12-18T20:56:49.491Z,15.70
2018-12-18T20:57:49.484Z,16.40
2018-12-18T20:58:49.476Z,17.80
2018-12-18T20:59:49.459Z,19.10
2018-12-18T21:00:49.450Z,15.90
2018-12-18T21:01:49.438Z,17.80
2018-12-18T21:02:49.438Z,16.10
2018-12-18T21:03:49.423Z,13.40
2018-12-18T21:04:49.405Z,15.60
2018-12-18T21:05:49.400Z,14.80
2018-12-18T21:06:49.396Z,12.40
2018-12-18T21:07:49.374Z,15.60
2018-12-18T21:08:49.370Z,13.70
2018-12-18T21:09:49.352Z,18.30
2018-12-18T21:10:49.343Z,14.80
2018-12-18T21:11:49.332Z,16.90
2018-12-18T21:12:49.341Z,17.90
2018-12-18T21:13:49.333Z,16.50
2018-12-18T21:14:49.308Z,11.60
2018-12-18T21:15:49.287Z,15.30
2018-12-18T21:16:49.281Z,17.20
2018-12-18T21:17:49.266Z,16.40
2018-12-18T21:18:49.258Z,15.00
2018-12-18T21:19:49.253Z,13.40
2018-12-18T21:20:49.236Z,14.90
2018-12-18T21:21:49.223Z,13.10
2018-12-18T21:22:49.212Z,13.50
2018-12-18T21:23:49.206Z,16.00
2018-12-18T21:24:49.191Z,13.40
2018-12-18T21:25:49.180Z,14.50
2018-12-18T21:26:49.173Z,15.60
2018-12-18T21:27:49.159Z,11.50
2018-12-18T21:28:49.150Z,18.10
2018-12-18T21:29:49.138Z,18.20
2018-12-18T21:30:49.128Z,18.00
2018-12-18T21:31:49.120Z,12.70
2018-12-18T21:32:49.104Z,15.00
2018-12-18T21:33:49.094Z,16.80
2018-12-18T21:34:49.083Z,11.30
2018-12-18T21:35:49.078Z,15.30
2018-12-18T21:36:49.064Z,17.20
2018-12-18T21:37:49.057Z,14.10
2018-12-18T21:38:49.040Z,13.10
2018-12-18T21:39:49.033Z,15.00
2018-12-18T21:40:49.019Z,13.90
2018-12-18T21:41:49.009Z,13.80
2018-12-18T21:42:49.002Z,13.90
2018-12-18T21:43:48.985Z,12.10
2018-12-18T21:44:48.977Z,17.40
2018-12-18T21:45:48.971Z,14.40
2018-12-18T21:46:48.958Z,13.50
2018-12-18T21:47:48.950Z,14.20
2018-12-18T21:48:48.934Z,12.40
2018-12-18T21:49:48.941Z,10.70
2018-12-18T21:50:48.911Z,10.20
2018-12-18T21:51:48.904Z,11.60
2018-12-18T21:52:48.890Z,13.10
2018-12-18T21:53:48.889Z,10.50
2018-12-18T21:54:48.884Z,13.20
2018-12-18T21:55:48.975Z,11.20
2018-12-18T21:56:48.857Z,14.10
2018-12-18T21:57:48.837Z,12.50
2018-12-18T21:58:48.828Z,21.60
2018-12-18T21:59:48.817Z,22.00
2018-12-18T22:00:48.806Z,16.90
2018-12-18T22:01:48.794Z,14.80
2018-12-18T22:02:48.783Z,17.70
2018-12-18T22:03:48.771Z,18.20
2018-12-18T22:04:48.772Z,12.10
2018-12-18T22:05:48.752Z,17.10
2018-12-18T22:06:48.745Z,18.10
2018-12-18T22:07:48.730Z,12.20
2018-12-18T22:08:48.717Z,13.00
2018-12-18T22:09:48.712Z,11.80
2018-12-18T22:10:48.698Z,12.50
2018-12-18T22:11:48.690Z,13.10
2018-12-18T22:12:48.676Z,12.80
2018-12-18T22:13:48.663Z,15.30
2018-12-18T22:14:48.653Z,13.30
2018-12-18T22:15:48.640Z,43.90
2018-12-18T22:16:48.632Z,57.50
2018-12-18T22:17:48.620Z,48.60
2018-12-18T22:18:48.609Z,37.90
2018-12-18T22:19:48.597Z,25.10
2018-12-18T22:20:48.586Z,19.00
2018-12-18T22:21:48.594Z,21.00
2018-12-18T22:22:48.567Z,17.90
2018-12-18T22:23:48.555Z,19.70
2018-12-18T22:24:48.544Z,29.50
2018-12-18T22:25:48.532Z,37.40
2018-12-18T22:26:48.524Z,17.20
2018-12-18T22:27:48.535Z,15.90
2018-12-18T22:28:48.503Z,22.10
2018-12-18T22:29:48.492Z,18.10
2018-12-18T22:30:48.503Z,12.00
2018-12-18T22:31:48.468Z,21.00
2018-12-18T22:32:48.458Z,19.50
2018-12-18T22:33:48.450Z,22.20
2018-12-18T22:34:48.438Z,19.30
2018-12-18T22:35:48.427Z,18.90
2018-12-18T22:36:48.415Z,18.80
2018-12-18T22:37:48.416Z,18.20
2018-12-18T22:38:48.394Z,15.40
2018-12-18T22:39:48.389Z,22.40
2018-12-18T22:40:48.380Z,27.10
2018-12-18T22:41:48.371Z,32.80
2018-12-18T22:42:48.352Z,60.20
2018-12-18T22:43:48.341Z,32.70
2018-12-18T22:44:48.333Z,33.50
2018-12-18T22:45:48.332Z,35.40
2018-12-18T22:46:48.318Z,38.20
2018-12-18T22:47:48.297Z,47.30
2018-12-18T22:48:48.290Z,29.30
2018-12-18T22:49:48.276Z,29.50
2018-12-18T22:50:48.269Z,53.10
2018-12-18T22:51:48.254Z,41.50
2018-12-18T22:52:48.250Z,50.70
2018-12-18T22:53:48.237Z,54.00
